Time,TemperatureF,DewpointF,PressureIn,WindDirection,WindDirectionDegrees,WindSpeedMPH,WindSpeedGustMPH,Humidity,HourlyPrecipIn,Conditions,Clouds,dailyrainin,SolarRadiationWatts/m^2,SoftwareType,DateUTC
2013-09-24 00:12:00,44.0,34.0,-100.00,NNW,343,4.0,7.0,67,0.00,,,0.00,0.000000,,2013-09-24 06:12:00,
2013-09-24 00:22:00,44.0,34.0,-100.00,NNW,343,4.0,7.0,67,0.00,,,0.00,0.000000,,2013-09-24 06:22:00,
2013-09-24 00:32:00,44.0,34.0,-100.00,NNW,343,4.0,7.0,67,0.00,,,0.00,0.000000,,2013-09-24 06:32:00,
2013-09-24 00:40:00,45.0,32.0,-100.00,NNW,339,5.0,6.0,61,0.00,,,0.00,0.000000,,2013-09-24 06:40:00,
2013-09-24 01:12:00,45.0,32.0,-100.00,NNW,339,5.0,6.0,61,0.00,,,0.00,0.000000,,2013-09-24 07:12:00,
2013-09-24 01:21:00,45.0,32.0,-100.00,NNW,339,5.0,6.0,61,0.00,,,0.00,0.000000,,2013-09-24 07:21:00,
2013-09-24 01:32:00,45.0,32.0,-100.00,NNW,339,5.0,6.0,61,0.00,,,0.00,0.000000,,2013-09-24 07:32:00,
2013-09-24 02:11:00,45.0,29.0,-100.00,North,6,3.0,4.0,54,0.00,,,0.00,0.000000,,2013-09-24 08:11:00,
2013-09-24 02:22:00,45.0,29.0,-100.00,North,6,3.0,4.0,54,0.00,,,0.00,0.000000,,2013-09-24 08:22:00,
2013-09-24 02:32:00,45.0,29.0,-100.00,North,6,3.0,4.0,54,0.00,,,0.00,0.000000,,2013-09-24 08:32:00,
2013-09-24 03:12:00,46.0,27.0,-100.00,North,350,5.0,7.0,48,0.00,,,-99.99,0.000000,,2013-09-24 09:12:00,
2013-09-24 03:21:00,46.0,27.0,-100.00,North,350,5.0,7.0,48,0.00,,,-99.99,0.000000,,2013-09-24 09:21:00,
2013-09-24 03:33:00,46.0,27.0,-100.00,North,350,5.0,7.0,48,0.00,,,-99.99,0.000000,,2013-09-24 09:33:00,
2013-09-24 05:40:00,42.0,21.0,-100.00,SE,140,0.0,6.0,43,-99.99,,,0.00,0.000000,,2013-09-24 11:40:00,
2013-09-24 06:12:00,42.0,21.0,-100.00,SE,140,0.0,6.0,43,-99.99,,,0.00,0.000000,,2013-09-24 12:12:00,
2013-09-24 06:21:00,42.0,21.0,-100.00,SE,140,0.0,6.0,43,-99.99,,,0.00,0.000000,,2013-09-24 12:21:00,
2013-09-24 06:31:00,42.0,21.0,-100.00,SE,140,0.0,6.0,43,-99.99,,,0.00,0.000000,,2013-09-24 12:31:00,
2013-09-24 06:40:00,43.0,23.0,-100.00,NE,51,0.0,2.0,44,0.00,,,-99.99,0.000000,,2013-09-24 12:40:00,
2013-09-24 07:11:00,43.0,23.0,-100.00,NE,51,0.0,2.0,44,0.00,,,-99.99,0.000000,,2013-09-24 13:11:00,
2013-09-24 07:21:00,43.0,23.0,-100.00,NE,51,0.0,2.0,44,0.00,,,-99.99,0.000000,,2013-09-24 13:21:00,
2013-09-24 07:32:00,43.0,23.0,-100.00,NE,51,0.0,2.0,44,0.00,,,-99.99,0.000000,,2013-09-24 13:32:00,
2013-09-24 07:40:00,43.0,29.0,-100.00,SE,142,3.0,4.0,57,-99.99,,,0.00,8.000000,,2013-09-24 13:40:00,
2013-09-24 08:12:00,43.0,29.0,-100.00,SE,142,3.0,4.0,57,-99.99,,,0.00,8.000000,,2013-09-24 14:12:00,
2013-09-24 08:21:00,43.0,29.0,-100.00,SE,142,3.0,4.0,57,-99.99,,,0.00,8.000000,,2013-09-24 14:21:00,
2013-09-24 08:32:00,43.0,29.0,-100.00,SE,142,3.0,4.0,57,-99.99,,,0.00,8.000000,,2013-09-24 14:32:00,
2013-09-24 08:40:00,50.0,34.0,-100.00,ESE,116,3.0,4.0,53,-99.99,,,0.00,109.000000,,2013-09-24 14:40:00,
2013-09-24 09:40:00,54.0,35.0,-100.00,South,169,6.0,10.0,49,0.00,,,0.00,396.000000,,2013-09-24 15:40:00,
2013-09-24 10:13:00,54.0,35.0,-100.00,South,169,6.0,10.0,49,0.00,,,0.00,396.000000,,2013-09-24 16:13:00,
2013-09-24 10:23:00,54.0,35.0,-100.00,South,169,6.0,10.0,49,0.00,,,0.00,396.000000,,2013-09-24 16:23:00,
2013-09-24 10:33:00,54.0,35.0,-100.00,South,169,6.0,10.0,49,0.00,,,0.00,396.000000,,2013-09-24 16:33:00,
2013-09-24 10:40:00,57.0,34.0,-100.00,South,182,8.0,12.0,42,0.00,,,0.00,615.000000,,2013-09-24 16:40:00,
2013-09-24 11:13:00,57.0,34.0,-100.00,South,182,8.0,12.0,42,0.00,,,0.00,615.000000,,2013-09-24 17:13:00,
2013-09-24 11:23:00,57.0,34.0,-100.00,South,182,8.0,12.0,42,0.00,,,0.00,615.000000,,2013-09-24 17:23:00,
2013-09-24 11:33:00,57.0,34.0,-100.00,South,182,8.0,12.0,42,0.00,,,0.00,615.000000,,2013-09-24 17:33:00,
2013-09-24 11:40:00,59.0,35.0,-100.00,SSW,199,8.0,14.0,40,0.00,,,0.00,797.000000,,2013-09-24 17:40:00,
2013-09-24 12:12:00,59.0,35.0,-100.00,SSW,199,8.0,14.0,40,0.00,,,0.00,797.000000,,2013-09-24 18:12:00,
2013-09-24 12:22:00,59.0,35.0,-100.00,SSW,199,8.0,14.0,40,0.00,,,0.00,797.000000,,2013-09-24 18:22:00,
2013-09-24 12:32:00,59.0,35.0,-100.00,SSW,199,8.0,14.0,40,0.00,,,0.00,797.000000,,2013-09-24 18:32:00,
2013-09-24 12:40:00,62.0,35.0,-100.00,South,186,8.0,15.0,37,0.00,,,0.00,924.000000,,2013-09-24 18:40:00,
2013-09-24 13:11:00,62.0,35.0,-100.00,South,186,8.0,15.0,37,0.00,,,0.00,924.000000,,2013-09-24 19:11:00,
2013-09-24 13:22:00,62.0,35.0,-100.00,South,186,8.0,15.0,37,0.00,,,0.00,924.000000,,2013-09-24 19:22:00,
2013-09-24 13:32:00,62.0,35.0,-100.00,South,186,8.0,15.0,37,0.00,,,0.00,924.000000,,2013-09-24 19:32:00,
2013-09-24 13:40:00,64.0,35.0,-100.00,SSW,194,8.0,14.0,34,0.00,,,0.00,981.000000,,2013-09-24 19:40:00,
2013-09-24 14:11:00,64.0,35.0,-100.00,SSW,194,8.0,14.0,34,0.00,,,0.00,981.000000,,2013-09-24 20:11:00,
2013-09-24 14:22:00,64.0,35.0,-100.00,SSW,194,8.0,14.0,34,0.00,,,0.00,981.000000,,2013-09-24 20:22:00,
2013-09-24 14:32:00,64.0,35.0,-100.00,SSW,194,8.0,14.0,34,0.00,,,0.00,981.000000,,2013-09-24 20:32:00,
2013-09-24 14:40:00,65.0,31.0,-100.00,South,189,7.0,13.0,28,0.00,,,0.00,963.000000,,2013-09-24 20:40:00,
2013-09-24 15:12:00,65.0,31.0,-100.00,South,189,7.0,13.0,28,0.00,,,0.00,963.000000,,2013-09-24 21:12:00,
2013-09-24 15:21:00,65.0,31.0,-100.00,South,189,7.0,13.0,28,0.00,,,0.00,963.000000,,2013-09-24 21:21:00,
2013-09-24 15:33:00,65.0,31.0,-100.00,South,189,7.0,13.0,28,0.00,,,0.00,963.000000,,2013-09-24 21:33:00,
2013-09-24 15:40:00,66.0,32.0,-100.00,SSW,199,5.0,12.0,28,0.00,,,0.00,869.000000,,2013-09-24 21:40:00,
2013-09-24 16:13:00,66.0,32.0,-100.00,SSW,199,5.0,12.0,28,0.00,,,0.00,869.000000,,2013-09-24 22:13:00,
2013-09-24 16:23:00,66.0,32.0,-100.00,SSW,199,5.0,12.0,28,0.00,,,0.00,869.000000,,2013-09-24 22:23:00,
2013-09-24 16:34:00,66.0,32.0,-100.00,SSW,199,5.0,12.0,28,0.00,,,0.00,869.000000,,2013-09-24 22:34:00,
2013-09-24 16:40:00,66.0,28.0,-100.00,SSW,196,6.0,13.0,24,0.00,,,0.00,713.000000,,2013-09-24 22:40:00,
2013-09-24 17:13:00,66.0,28.0,-100.00,SSW,196,6.0,13.0,24,0.00,,,0.00,713.000000,,2013-09-24 23:13:00,
2013-09-24 17:22:00,66.0,28.0,-100.00,SSW,196,6.0,13.0,24,0.00,,,0.00,713.000000,,2013-09-24 23:22:00,
2013-09-24 17:33:00,66.0,28.0,-100.00,SSW,196,6.0,13.0,24,0.00,,,0.00,713.000000,,2013-09-24 23:33:00,
2013-09-24 17:40:00,66.0,31.0,-100.00,South,189,4.0,10.0,27,0.00,,,0.00,503.000000,,2013-09-24 23:40:00,
2013-09-24 18:12:00,66.0,31.0,-100.00,South,189,4.0,10.0,27,0.00,,,0.00,503.000000,,2013-09-25 00:12:00,
2013-09-24 18:22:00,66.0,31.0,-100.00,South,189,4.0,10.0,27,0.00,,,0.00,503.000000,,2013-09-25 00:22:00,
2013-09-24 18:32:00,66.0,31.0,-100.00,South,189,4.0,10.0,27,0.00,,,0.00,503.000000,,2013-09-25 00:32:00,
2013-09-24 18:40:00,60.0,29.0,-100.00,SSE,165,3.0,8.0,31,0.00,,,0.00,223.000000,,2013-09-25 00:40:00,
2013-09-24 19:12:00,60.0,29.0,-100.00,SSE,165,3.0,8.0,31,0.00,,,0.00,223.000000,,2013-09-25 01:12:00,
2013-09-24 19:21:00,60.0,29.0,-100.00,SSE,165,3.0,8.0,31,0.00,,,0.00,223.000000,,2013-09-25 01:21:00,
2013-09-24 19:32:00,60.0,29.0,-100.00,SSE,165,3.0,8.0,31,0.00,,,0.00,223.000000,,2013-09-25 01:32:00,
2013-09-24 19:40:00,54.0,31.0,-100.00,SE,145,0.0,3.0,41,0.00,,,-99.99,6.000000,,2013-09-25 01:40:00,
2013-09-24 20:12:00,54.0,31.0,-100.00,SE,145,0.0,3.0,41,0.00,,,-99.99,6.000000,,2013-09-25 02:12:00,
2013-09-24 20:21:00,54.0,31.0,-100.00,SE,145,0.0,3.0,41,0.00,,,-99.99,6.000000,,2013-09-25 02:21:00,
2013-09-24 20:32:00,54.0,31.0,-100.00,SE,145,0.0,3.0,41,0.00,,,-99.99,6.000000,,2013-09-25 02:32:00,
2013-09-24 20:40:00,57.0,26.0,-100.00,ESE,118,5.0,8.0,30,0.00,,,0.00,0.000000,,2013-09-25 02:40:00,
2013-09-24 21:11:00,57.0,26.0,-100.00,ESE,118,5.0,8.0,30,0.00,,,0.00,0.000000,,2013-09-25 03:11:00,
2013-09-24 21:23:00,57.0,26.0,-100.00,ESE,118,5.0,8.0,30,0.00,,,0.00,0.000000,,2013-09-25 03:23:00,
2013-09-24 21:33:00,57.0,26.0,-100.00,ESE,118,5.0,8.0,30,0.00,,,0.00,0.000000,,2013-09-25 03:33:00,